sensor_id;sensor_type;location;lat;lon;timestamp;temperature;humidity
16995;DHT22;8614;48.522;9.206;2022-12-18T03:02:53;-9.30;99.90
16995;DHT22;8614;48.522;9.206;2022-12-18T03:05:24;-9.30;99.90
16995;DHT22;8614;48.522;9.206;2022-12-18T03:07:57;-9.30;99.90
16995;DHT22;8614;48.522;9.206;2022-12-18T03:10:32;-9.20;99.90
16995;DHT22;8614;48.522;9.206;2022-12-18T03:13:04;-9.10;99.90
16995;DHT22;8614;48.522;9.206;2022-12-18T03:15:35;-9.00;99.90
16995;DHT22;8614;48.522;9.206;2022-12-18T03:18:13;-8.90;99.90
16995;DHT22;8614;48.522;9.206;2022-12-18T03:20:43;-8.70;99.90
16995;DHT22;8614;48.522;9.206;2022-12-18T03:23:17;-8.80;99.90
16995;DHT22;8614;48.522;9.206;2022-12-18T03:25:51;-8.80;99.90
16995;DHT22;8614;48.522;9.206;2022-12-18T03:28:22;-8.70;99.90
16995;DHT22;8614;48.522;9.206;2022-12-18T03:30:57;-8.80;99.90
16995;DHT22;8614;48.522;9.206;2022-12-18T03:33:29;-8.90;99.90
16995;DHT22;8614;48.522;9.206;2022-12-18T03:35:57;-8.80;99.90
16995;DHT22;8614;48.522;9.206;2022-12-18T03:38:24;-8.80;99.90
16995;DHT22;8614;48.522;9.206;2022-12-18T03:40:58;-8.90;99.90
16995;DHT22;8614;48.522;9.206;2022-12-18T03:43:35;-8.90;99.90
16995;DHT22;8614;48.522;9.206;2022-12-18T03:46:10;-8.90;99.90
16995;DHT22;8614;48.522;9.206;2022-12-18T03:48:43;-8.80;99.90
16995;DHT22;8614;48.522;9.206;2022-12-18T03:51:18;-8.90;99.90
16995;DHT22;8614;48.522;9.206;2022-12-18T03:53:53;-8.90;99.90
16995;DHT22;8614;48.522;9.206;2022-12-18T03:56:31;-8.80;99.90
16995;DHT22;8614;48.522;9.206;2022-12-18T03:59:00;-8.80;99.90
16995;DHT22;8614;48.522;9.206;2022-12-18T04:01:32;-8.80;99.90
16995;DHT22;8614;48.522;9.206;2022-12-18T04:04:02;-8.90;99.90
16995;DHT22;8614;48.522;9.206;2022-12-18T04:06:34;-9.00;99.90
16995;DHT22;8614;48.522;9.206;2022-12-18T04:09:02;-9.00;99.90
16995;DHT22;8614;48.522;9.206;2022-12-18T04:11:34;-8.90;99.90
16995;DHT22;8614;48.522;9.206;2022-12-18T04:14:03;-9.00;99.90
16995;DHT22;8614;48.522;9.206;2022-12-18T04:16:30;-9.00;99.90
16995;DHT22;8614;48.522;9.206;2022-12-18T04:19:02;-9.10;99.90
16995;DHT22;8614;48.522;9.206;2022-12-18T04:21:35;-9.20;99.90
16995;DHT22;8614;48.522;9.206;2022-12-18T04:24:02;-9.20;99.90
16995;DHT22;8614;48.522;9.206;2022-12-18T04:26:29;-9.30;99.90
16995;DHT22;8614;48.522;9.206;2022-12-18T04:29:08;-9.40;99.90
16995;DHT22;8614;48.522;9.206;2022-12-18T04:31:36;-9.40;99.90
16995;DHT22;8614;48.522;9.206;2022-12-18T04:34:05;-9.30;99.90
16995;DHT22;8614;48.522;9.206;2022-12-18T04:36:38;-9.30;99.90
16995;DHT22;8614;48.522;9.206;2022-12-18T04:39:06;-9.30;99.90
16995;DHT22;8614;48.522;9.206;2022-12-18T04:41:33;-9.40;99.90
16995;DHT22;8614;48.522;9.206;2022-12-18T04:44:01;-9.40;99.90
16995;DHT22;8614;48.522;9.206;2022-12-18T04:46:28;-9.50;99.90
16995;DHT22;8614;48.522;9.206;2022-12-18T04:48:55;-9.60;99.90
16995;DHT22;8614;48.522;9.206;2022-12-18T04:51:23;-9.50;99.90
16995;DHT22;8614;48.522;9.206;2022-12-18T04:53:50;-9.50;99.90
16995;DHT22;8614;48.522;9.206;2022-12-18T04:56:16;-9.50;99.90
16995;DHT22;8614;48.522;9.206;2022-12-18T04:58:44;-9.40;99.90
16995;DHT22;8614;48.522;9.206;2022-12-18T05:01:12;-9.50;99.90
16995;DHT22;8614;48.522;9.206;2022-12-18T05:03:39;-9.50;99.90
16995;DHT22;8614;48.522;9.206;2022-12-18T05:06:07;-9.60;99.90
16995;DHT22;8614;48.522;9.206;2022-12-18T05:08:35;-9.70;99.90
16995;DHT22;8614;48.522;9.206;2022-12-18T05:11:04;-9.70;99.90
16995;DHT22;8614;48.522;9.206;2022-12-18T05:13:32;-9.70;99.90
16995;DHT22;8614;48.522;9.206;2022-12-18T05:15:59;-9.70;99.90
16995;DHT22;8614;48.522;9.206;2022-12-18T05:18:26;-9.70;99.90
16995;DHT22;8614;48.522;9.206;2022-12-18T05:20:54;-9.60;99.90
16995;DHT22;8614;48.522;9.206;2022-12-18T05:23:22;-9.60;99.90
16995;DHT22;8614;48.522;9.206;2022-12-18T05:25:52;-9.70;99.90
16995;DHT22;8614;48.522;9.206;2022-12-18T05:28:20;-9.80;99.90
16995;DHT22;8614;48.522;9.206;2022-12-18T05:30:48;-9.80;99.90
16995;DHT22;8614;48.522;9.206;2022-12-18T05:33:16;-9.70;99.90
16995;DHT22;8614;48.522;9.206;2022-12-18T05:35:43;-9.80;99.90
16995;DHT22;8614;48.522;9.206;2022-12-18T05:38:10;-9.80;99.90
16995;DHT22;8614;48.522;9.206;2022-12-18T05:40:37;-10.00;99.90
16995;DHT22;8614;48.522;9.206;2022-12-18T05:43:05;-10.00;99.90
16995;DHT22;8614;48.522;9.206;2022-12-18T05:45:32;-10.10;99.90
16995;DHT22;8614;48.522;9.206;2022-12-18T05:47:58;-10.10;99.90
16995;DHT22;8614;48.522;9.206;2022-12-18T05:50:25;-10.10;99.90
16995;DHT22;8614;48.522;9.206;2022-12-18T05:52:52;-10.20;99.90
16995;DHT22;8614;48.522;9.206;2022-12-18T05:55:19;-10.20;99.90
16995;DHT22;8614;48.522;9.206;2022-12-18T05:57:46;-10.20;99.90
16995;DHT22;8614;48.522;9.206;2022-12-18T06:00:15;-10.30;99.90
16995;DHT22;8614;48.522;9.206;2022-12-18T06:02:42;-10.40;99.90
16995;DHT22;8614;48.522;9.206;2022-12-18T06:05:12;-10.30;99.90
16995;DHT22;8614;48.522;9.206;2022-12-18T06:07:39;-10.30;99.90
16995;DHT22;8614;48.522;9.206;2022-12-18T06:10:07;-10.30;99.90
16995;DHT22;8614;48.522;9.206;2022-12-18T06:12:34;-10.40;99.90
16995;DHT22;8614;48.522;9.206;2022-12-18T06:15:01;-10.50;99.90
16995;DHT22;8614;48.522;9.206;2022-12-18T06:17:29;-10.50;99.90
16995;DHT22;8614;48.522;9.206;2022-12-18T06:19:56;-10.50;99.90
16995;DHT22;8614;48.522;9.206;2022-12-18T06:22:23;-10.50;99.90
16995;DHT22;8614;48.522;9.206;2022-12-18T06:24:50;-10.40;99.90
16995;DHT22;8614;48.522;9.206;2022-12-18T06:27:17;-10.40;99.90
16995;DHT22;8614;48.522;9.206;2022-12-18T06:29:44;-10.30;99.90
16995;DHT22;8614;48.522;9.206;2022-12-18T06:32:11;-10.20;99.90
16995;DHT22;8614;48.522;9.206;2022-12-18T06:34:40;-10.30;99.90
16995;DHT22;8614;48.522;9.206;2022-12-18T06:37:07;-10.40;99.90
16995;DHT22;8614;48.522;9.206;2022-12-18T06:39:34;-10.50;99.90
16995;DHT22;8614;48.522;9.206;2022-12-18T06:42:00;-10.40;99.90
16995;DHT22;8614;48.522;9.206;2022-12-18T06:44:27;-10.30;99.90
16995;DHT22;8614;48.522;9.206;2022-12-18T06:46:54;-10.40;99.90
16995;DHT22;8614;48.522;9.206;2022-12-18T06:49:21;-10.40;99.90
16995;DHT22;8614;48.522;9.206;2022-12-18T06:51:49;-10.40;99.90
16995;DHT22;8614;48.522;9.206;2022-12-18T06:54:16;-10.50;99.90
16995;DHT22;8614;48.522;9.206;2022-12-18T06:56:45;-10.50;99.90
16995;DHT22;8614;48.522;9.206;2022-12-18T06:59:12;-10.50;99.90
16995;DHT22;8614;48.522;9.206;2022-12-18T07:01:40;-10.60;99.90
16995;DHT22;8614;48.522;9.206;2022-12-18T07:04:07;-10.60;99.90
16995;DHT22;8614;48.522;9.206;2022-12-18T07:06:33;-10.60;99.90
16995;DHT22;8614;48.522;9.206;2022-12-18T07:09:02;-10.60;99.90
16995;DHT22;8614;48.522;9.206;2022-12-18T07:11:29;-10.70;99.90
16995;DHT22;8614;48.522;9.206;2022-12-18T07:13:55;-10.70;99.90
16995;DHT22;8614;48.522;9.206;2022-12-18T07:16:22;-10.80;99.90
16995;DHT22;8614;48.522;9.206;2022-12-18T07:18:49;-10.80;99.90
16995;DHT22;8614;48.522;9.206;2022-12-18T07:21:18;-10.80;99.90
16995;DHT22;8614;48.522;9.206;2022-12-18T07:23:45;-10.80;99.90
16995;DHT22;8614;48.522;9.206;2022-12-18T07:26:16;-10.70;99.90
16995;DHT22;8614;48.522;9.206;2022-12-18T07:28:43;-10.60;99.90
16995;DHT22;8614;48.522;9.206;2022-12-18T07:31:12;-10.60;99.90
16995;DHT22;8614;48.522;9.206;2022-12-18T07:33:39;-10.40;99.90
16995;DHT22;8614;48.522;9.206;2022-12-18T07:36:07;-10.30;99.90
16995;DHT22;8614;48.522;9.206;2022-12-18T07:38:40;-10.30;99.90
16995;DHT22;8614;48.522;9.206;2022-12-18T07:41:12;-10.30;99.90
16995;DHT22;8614;48.522;9.206;2022-12-18T07:43:47;-10.20;99.90
16995;DHT22;8614;48.522;9.206;2022-12-18T07:46:14;-10.20;99.90
16995;DHT22;8614;48.522;9.206;2022-12-18T07:48:42;-10.20;99.90
16995;DHT22;8614;48.522;9.206;2022-12-18T07:51:09;-10.10;99.90
16995;DHT22;8614;48.522;9.206;2022-12-18T07:53:39;-10.00;99.90
16995;DHT22;8614;48.522;9.206;2022-12-18T07:56:08;-10.00;99.90
16995;DHT22;8614;48.522;9.206;2022-12-18T07:58:36;-9.90;99.90
16995;DHT22;8614;48.522;9.206;2022-12-18T08:01:09;-9.90;99.90
16995;DHT22;8614;48.522;9.206;2022-12-18T08:03:37;-9.80;99.90
16995;DHT22;8614;48.522;9.206;2022-12-18T08:06:07;-9.70;99.90
16995;DHT22;8614;48.522;9.206;2022-12-18T08:08:34;-9.70;99.90
16995;DHT22;8614;48.522;9.206;2022-12-18T08:11:02;-9.60;99.90
16995;DHT22;8614;48.522;9.206;2022-12-18T08:13:28;-9.50;99.90
16995;DHT22;8614;48.522;9.206;2022-12-18T08:15:56;-9.30;99.90
16995;DHT22;8614;48.522;9.206;2022-12-18T08:18:33;-9.20;99.90
16995;DHT22;8614;48.522;9.206;2022-12-18T08:21:07;-9.20;99.90
16995;DHT22;8614;48.522;9.206;2022-12-18T08:31:19;-8.80;99.90
16995;DHT22;8614;48.522;9.206;2022-12-18T08:34:18;-8.80;99.90
16995;DHT22;8614;48.522;9.206;2022-12-18T08:37:27;-8.70;99.90
16995;DHT22;8614;48.522;9.206;2022-12-18T08:44:34;-8.20;99.90
16995;DHT22;8614;48.522;9.206;2022-12-18T08:47:04;-7.80;99.90
16995;DHT22;8614;48.522;9.206;2022-12-18T08:49:33;-7.70;99.90
16995;DHT22;8614;48.522;9.206;2022-12-18T08:52:00;-7.60;99.90
16995;DHT22;8614;48.522;9.206;2022-12-18T08:54:28;-7.60;99.90
16995;DHT22;8614;48.522;9.206;2022-12-18T08:56:55;-7.50;99.90
16995;DHT22;8614;48.522;9.206;2022-12-18T08:59:22;-7.50;99.90
16995;DHT22;8614;48.522;9.206;2022-12-18T09:01:49;-7.40;99.90
16995;DHT22;8614;48.522;9.206;2022-12-18T09:04:16;-7.40;99.90
16995;DHT22;8614;48.522;9.206;2022-12-18T09:06:45;-7.40;99.90
16995;DHT22;8614;48.522;9.206;2022-12-18T09:09:12;-7.30;99.90
16995;DHT22;8614;48.522;9.206;2022-12-18T09:11:39;-7.10;99.90
16995;DHT22;8614;48.522;9.206;2022-12-18T09:14:06;-7.10;99.90
16995;DHT22;8614;48.522;9.206;2022-12-18T09:16:33;-7.00;99.90
16995;DHT22;8614;48.522;9.206;2022-12-18T09:19:01;-6.90;99.90
16995;DHT22;8614;48.522;9.206;2022-12-18T09:21:30;-7.00;99.90
16995;DHT22;8614;48.522;9.206;2022-12-18T09:23:59;-7.10;99.90
16995;DHT22;8614;48.522;9.206;2022-12-18T09:26:26;-7.20;99.90
16995;DHT22;8614;48.522;9.206;2022-12-18T09:28:54;-7.40;99.90
16995;DHT22;8614;48.522;9.206;2022-12-18T09:31:23;-7.40;99.90
16995;DHT22;8614;48.522;9.206;2022-12-18T09:33:50;-7.30;99.90
16995;DHT22;8614;48.522;9.206;2022-12-18T09:36:17;-7.30;99.90
16995;DHT22;8614;48.522;9.206;2022-12-18T09:38:44;-7.20;99.90
16995;DHT22;8614;48.522;9.206;2022-12-18T09:41:30;-7.20;99.90
16995;DHT22;8614;48.522;9.206;2022-12-18T09:44:03;-7.30;99.90
16995;DHT22;8614;48.522;9.206;2022-12-18T09:46:36;-7.40;99.90
16995;DHT22;8614;48.522;9.206;2022-12-18T09:49:10;-7.20;99.90
16995;DHT22;8614;48.522;9.206;2022-12-18T09:51:41;-7.10;99.90
16995;DHT22;8614;48.522;9.206;2022-12-18T09:54:14;-7.00;99.90
16995;DHT22;8614;48.522;9.206;2022-12-18T09:56:44;-7.00;99.90
16995;DHT22;8614;48.522;9.206;2022-12-18T09:59:20;-6.90;99.90
16995;DHT22;8614;48.522;9.206;2022-12-18T10:01:47;-6.90;99.90
16995;DHT22;8614;48.522;9.206;2022-12-18T10:04:14;-6.80;99.90
16995;DHT22;8614;48.522;9.206;2022-12-18T10:06:47;-6.80;99.90
16995;DHT22;8614;48.522;9.206;2022-12-18T10:09:23;-6.80;99.90
16995;DHT22;8614;48.522;9.206;2022-12-18T10:12:01;-6.70;99.90
16995;DHT22;8614;48.522;9.206;2022-12-18T10:14:35;-6.70;99.90
16995;DHT22;8614;48.522;9.206;2022-12-18T10:17:14;-6.50;99.90
16995;DHT22;8614;48.522;9.206;2022-12-18T10:19:47;-6.30;99.90
16995;DHT22;8614;48.522;9.206;2022-12-18T10:22:23;-6.30;99.90
16995;DHT22;8614;48.522;9.206;2022-12-18T10:24:55;-6.20;99.90
16995;DHT22;8614;48.522;9.206;2022-12-18T10:27:27;-6.10;99.90
16995;DHT22;8614;48.522;9.206;2022-12-18T10:29:54;-6.10;99.90
16995;DHT22;8614;48.522;9.206;2022-12-18T10:32:23;-6.10;99.90
16995;DHT22;8614;48.522;9.206;2022-12-18T10:34:51;-6.10;99.90
16995;DHT22;8614;48.522;9.206;2022-12-18T10:37:20;-6.00;99.90
16995;DHT22;8614;48.522;9.206;2022-12-18T10:40:06;-5.90;99.90
16995;DHT22;8614;48.522;9.206;2022-12-18T10:42:35;-5.80;99.90
16995;DHT22;8614;48.522;9.206;2022-12-18T10:45:09;-5.70;99.90
16995;DHT22;8614;48.522;9.206;2022-12-18T10:47:37;-5.50;99.90
16995;DHT22;8614;48.522;9.206;2022-12-18T10:50:19;-5.30;99.90
16995;DHT22;8614;48.522;9.206;2022-12-18T10:52:54;-5.10;99.90
16995;DHT22;8614;48.522;9.206;2022-12-18T10:55:21;-5.00;99.90
16995;DHT22;8614;48.522;9.206;2022-12-18T10:57:51;-4.80;99.90
16995;DHT22;8614;48.522;9.206;2022-12-18T11:00:24;-4.70;99.90
16995;DHT22;8614;48.522;9.206;2022-12-18T11:02:51;-4.60;99.90
16995;DHT22;8614;48.522;9.206;2022-12-18T11:05:27;-4.50;99.90
16995;DHT22;8614;48.522;9.206;2022-12-18T11:07:55;-4.40;99.90
16995;DHT22;8614;48.522;9.206;2022-12-18T11:10:25;-4.30;99.90
16995;DHT22;8614;48.522;9.206;2022-12-18T11:12:54;-4.20;99.90
16995;DHT22;8614;48.522;9.206;2022-12-18T11:15:24;-4.10;99.90
16995;DHT22;8614;48.522;9.206;2022-12-18T11:17:52;-4.00;99.90
16995;DHT22;8614;48.522;9.206;2022-12-18T11:20:27;-3.90;99.90
16995;DHT22;8614;48.522;9.206;2022-12-18T11:22:58;-4.00;99.90
16995;DHT22;8614;48.522;9.206;2022-12-18T11:25:26;-4.00;99.90
16995;DHT22;8614;48.522;9.206;2022-12-18T11:27:56;-4.00;99.90
16995;DHT22;8614;48.522;9.206;2022-12-18T11:30:26;-4.10;99.90
16995;DHT22;8614;48.522;9.206;2022-12-18T11:33:02;-4.20;99.90
16995;DHT22;8614;48.522;9.206;2022-12-18T11:35:40;-4.10;99.90
16995;DHT22;8614;48.522;9.206;2022-12-18T11:38:17;-4.00;99.90
16995;DHT22;8614;48.522;9.206;2022-12-18T11:40:49;-3.80;99.90
16995;DHT22;8614;48.522;9.206;2022-12-18T11:43:25;-3.70;99.90
16995;DHT22;8614;48.522;9.206;2022-12-18T11:45:55;-3.70;99.90
16995;DHT22;8614;48.522;9.206;2022-12-18T11:48:25;-3.60;99.90
16995;DHT22;8614;48.522;9.206;2022-12-18T11:50:54;-3.50;99.90
16995;DHT22;8614;48.522;9.206;2022-12-18T11:53:22;-3.40;99.90
16995;DHT22;8614;48.522;9.206;2022-12-18T11:56:00;-3.30;99.90
16995;DHT22;8614;48.522;9.206;2022-12-18T11:58:46;-3.20;99.90
16995;DHT22;8614;48.522;9.206;2022-12-18T12:01:22;-3.20;99.90
16995;DHT22;8614;48.522;9.206;2022-12-18T12:06:50;-2.90;99.90
16995;DHT22;8614;48.522;9.206;2022-12-18T12:09:26;-2.80;99.90
16995;DHT22;8614;48.522;9.206;2022-12-18T12:12:10;-2.80;99.90
16995;DHT22;8614;48.522;9.206;2022-12-18T12:14:51;-2.90;99.90
16995;DHT22;8614;48.522;9.206;2022-12-18T12:17:27;-2.80;99.90
16995;DHT22;8614;48.522;9.206;2022-12-18T12:20:00;-2.70;99.90
16995;DHT22;8614;48.522;9.206;2022-12-18T12:22:36;-2.70;99.90
16995;DHT22;8614;48.522;9.206;2022-12-18T12:25:21;-2.70;99.90
16995;DHT22;8614;48.522;9.206;2022-12-18T12:27:57;-2.60;99.90
16995;DHT22;8614;48.522;9.206;2022-12-18T12:30:35;-2.50;99.90
16995;DHT22;8614;48.522;9.206;2022-12-18T12:33:15;-2.50;99.90
16995;DHT22;8614;48.522;9.206;2022-12-18T12:35:53;-2.50;99.90
16995;DHT22;8614;48.522;9.206;2022-12-18T12:38:24;-2.50;99.90
16995;DHT22;8614;48.522;9.206;2022-12-18T12:40:54;-2.50;99.90
16995;DHT22;8614;48.522;9.206;2022-12-18T12:43:28;-2.50;99.90
16995;DHT22;8614;48.522;9.206;2022-12-18T12:46:00;-2.50;99.90
16995;DHT22;8614;48.522;9.206;2022-12-18T12:48:40;-2.50;99.90
16995;DHT22;8614;48.522;9.206;2022-12-18T12:51:12;-2.40;99.90
16995;DHT22;8614;48.522;9.206;2022-12-18T12:53:40;-2.30;99.90
16995;DHT22;8614;48.522;9.206;2022-12-18T12:56:11;-2.40;99.90
16995;DHT22;8614;48.522;9.206;2022-12-18T12:58:45;-2.50;99.90
16995;DHT22;8614;48.522;9.206;2022-12-18T13:01:22;-2.50;99.90
16995;DHT22;8614;48.522;9.206;2022-12-18T13:03:58;-2.40;99.90
16995;DHT22;8614;48.522;9.206;2022-12-18T13:06:42;-2.40;99.90
16995;DHT22;8614;48.522;9.206;2022-12-18T13:09:10;-2.30;99.90
16995;DHT22;8614;48.522;9.206;2022-12-18T13:11:39;-2.40;99.90
16995;DHT22;8614;48.522;9.206;2022-12-18T13:14:27;-2.50;99.90
16995;DHT22;8614;48.522;9.206;2022-12-18T13:17:28;-2.40;99.90
16995;DHT22;8614;48.522;9.206;2022-12-18T13:20:08;-2.40;99.90
16995;DHT22;8614;48.522;9.206;2022-12-18T13:22:37;-2.40;99.90
16995;DHT22;8614;48.522;9.206;2022-12-18T13:25:29;-2.30;99.90
16995;DHT22;8614;48.522;9.206;2022-12-18T13:28:11;-2.30;99.90
16995;DHT22;8614;48.522;9.206;2022-12-18T13:30:44;-2.30;99.90
16995;DHT22;8614;48.522;9.206;2022-12-18T13:33:40;-2.20;99.90
16995;DHT22;8614;48.522;9.206;2022-12-18T13:39:24;-2.20;99.90
16995;DHT22;8614;48.522;9.206;2022-12-18T13:41:53;-2.20;99.90
16995;DHT22;8614;48.522;9.206;2022-12-18T13:44:28;-2.10;99.90
16995;DHT22;8614;48.522;9.206;2022-12-18T13:46:57;-2.10;99.90
16995;DHT22;8614;48.522;9.206;2022-12-18T13:49:30;-2.10;99.90
16995;DHT22;8614;48.522;9.206;2022-12-18T13:51:59;-2.10;99.90
16995;DHT22;8614;48.522;9.206;2022-12-18T13:54:30;-2.10;99.90
16995;DHT22;8614;48.522;9.206;2022-12-18T13:56:59;-2.00;99.90
16995;DHT22;8614;48.522;9.206;2022-12-18T13:59:32;-2.00;99.90
16995;DHT22;8614;48.522;9.206;2022-12-18T14:02:01;-2.10;99.90
16995;DHT22;8614;48.522;9.206;2022-12-18T14:04:35;-2.00;99.90
16995;DHT22;8614;48.522;9.206;2022-12-18T14:07:05;-2.10;99.90
16995;DHT22;8614;48.522;9.206;2022-12-18T14:09:35;-2.10;99.90
16995;DHT22;8614;48.522;9.206;2022-12-18T14:12:03;-2.10;99.90
16995;DHT22;8614;48.522;9.206;2022-12-18T14:14:51;-2.10;99.90
16995;DHT22;8614;48.522;9.206;2022-12-18T14:17:19;-2.20;99.90
16995;DHT22;8614;48.522;9.206;2022-12-18T14:19:48;-2.30;99.90
16995;DHT22;8614;48.522;9.206;2022-12-18T14:22:18;-2.30;99.90
16995;DHT22;8614;48.522;9.206;2022-12-18T14:24:46;-2.30;99.90
16995;DHT22;8614;48.522;9.206;2022-12-18T14:27:20;-2.30;99.90
16995;DHT22;8614;48.522;9.206;2022-12-18T14:29:48;-2.40;99.90
16995;DHT22;8614;48.522;9.206;2022-12-18T14:32:16;-2.50;99.90
16995;DHT22;8614;48.522;9.206;2022-12-18T14:34:44;-2.50;99.90
16995;DHT22;8614;48.522;9.206;2022-12-18T14:37:14;-2.50;99.90
16995;DHT22;8614;48.522;9.206;2022-12-18T14:39:53;-2.50;99.90
16995;DHT22;8614;48.522;9.206;2022-12-18T14:42:20;-2.60;99.90
16995;DHT22;8614;48.522;9.206;2022-12-18T14:44:47;-2.60;99.90
16995;DHT22;8614;48.522;9.206;2022-12-18T14:47:15;-2.70;99.90
16995;DHT22;8614;48.522;9.206;2022-12-18T14:49:42;-2.80;99.90
16995;DHT22;8614;48.522;9.206;2022-12-18T14:52:26;-2.80;99.90
16995;DHT22;8614;48.522;9.206;2022-12-18T14:54:54;-2.90;99.90
16995;DHT22;8614;48.522;9.206;2022-12-18T14:57:23;-2.90;99.90
16995;DHT22;8614;48.522;9.206;2022-12-18T14:59:52;-3.00;99.90
16995;DHT22;8614;48.522;9.206;2022-12-18T15:02:21;-3.00;99.90
16995;DHT22;8614;48.522;9.206;2022-12-18T15:05:00;-3.20;99.90
16995;DHT22;8614;48.522;9.206;2022-12-18T15:07:40;-3.20;99.90
16995;DHT22;8614;48.522;9.206;2022-12-18T15:10:11;-3.30;99.90
16995;DHT22;8614;48.522;9.206;2022-12-18T15:12:41;-3.40;99.90
16995;DHT22;8614;48.522;9.206;2022-12-18T15:15:45;-3.50;99.90
16995;DHT22;8614;48.522;9.206;2022-12-18T15:18:14;-3.60;99.90
16995;DHT22;8614;48.522;9.206;2022-12-18T15:20:44;-3.60;99.90
16995;DHT22;8614;48.522;9.206;2022-12-18T15:23:17;-3.70;99.90
16995;DHT22;8614;48.522;9.206;2022-12-18T15:25:45;-3.70;99.90
16995;DHT22;8614;48.522;9.206;2022-12-18T15:28:22;-3.70;99.90
16995;DHT22;8614;48.522;9.206;2022-12-18T15:31:04;-3.80;99.90
16995;DHT22;8614;48.522;9.206;2022-12-18T15:33:33;-3.80;99.90
16995;DHT22;8614;48.522;9.206;2022-12-18T15:36:01;-3.90;99.90
16995;DHT22;8614;48.522;9.206;2022-12-18T15:38:31;-4.00;99.90
16995;DHT22;8614;48.522;9.206;2022-12-18T15:40:57;-4.00;99.90
16995;DHT22;8614;48.522;9.206;2022-12-18T15:43:25;-4.00;99.90
16995;DHT22;8614;48.522;9.206;2022-12-18T15:46:02;-4.00;99.90
16995;DHT22;8614;48.522;9.206;2022-12-18T15:48:29;-4.10;99.90
16995;DHT22;8614;48.522;9.206;2022-12-18T15:50:57;-4.10;99.90
16995;DHT22;8614;48.522;9.206;2022-12-18T15:53:26;-4.10;99.90
16995;DHT22;8614;48.522;9.206;2022-12-18T15:55:55;-4.20;99.90
16995;DHT22;8614;48.522;9.206;2022-12-18T15:58:39;-4.20;99.90
16995;DHT22;8614;48.522;9.206;2022-12-18T16:01:08;-4.30;99.90
16995;DHT22;8614;48.522;9.206;2022-12-18T16:03:35;-4.40;99.90
16995;DHT22;8614;48.522;9.206;2022-12-18T16:06:03;-4.40;99.90
16995;DHT22;8614;48.522;9.206;2022-12-18T16:08:30;-4.50;99.90
16995;DHT22;8614;48.522;9.206;2022-12-18T16:10:58;-4.40;99.90
16995;DHT22;8614;48.522;9.206;2022-12-18T16:13:26;-4.50;99.90
16995;DHT22;8614;48.522;9.206;2022-12-18T16:15:53;-4.50;99.90
16995;DHT22;8614;48.522;9.206;2022-12-18T16:18:20;-4.50;99.90
16995;DHT22;8614;48.522;9.206;2022-12-18T16:20:47;-4.50;99.90
16995;DHT22;8614;48.522;9.206;2022-12-18T16:23:14;-4.50;99.90
16995;DHT22;8614;48.522;9.206;2022-12-18T16:25:40;-4.50;99.90
16995;DHT22;8614;48.522;9.206;2022-12-18T16:28:09;-4.50;99.90
16995;DHT22;8614;48.522;9.206;2022-12-18T16:30:35;-4.50;99.90
16995;DHT22;8614;48.522;9.206;2022-12-18T16:33:02;-4.60;99.90
16995;DHT22;8614;48.522;9.206;2022-12-18T16:35:29;-4.50;99.90
16995;DHT22;8614;48.522;9.206;2022-12-18T16:37:57;-4.50;99.90
16995;DHT22;8614;48.522;9.206;2022-12-18T16:40:24;-4.50;99.90
16995;DHT22;8614;48.522;9.206;2022-12-18T16:42:51;-4.50;99.90
16995;DHT22;8614;48.522;9.206;2022-12-18T16:45:20;-4.40;99.90
16995;DHT22;8614;48.522;9.206;2022-12-18T16:47:46;-4.50;99.90
16995;DHT22;8614;48.522;9.206;2022-12-18T16:50:13;-4.40;99.90
16995;DHT22;8614;48.522;9.206;2022-12-18T16:52:40;-4.40;99.90
16995;DHT22;8614;48.522;9.206;2022-12-18T16:55:08;-4.30;99.90
16995;DHT22;8614;48.522;9.206;2022-12-18T16:57:35;-4.20;99.90
16995;DHT22;8614;48.522;9.206;2022-12-18T17:00:03;-4.10;99.90
16995;DHT22;8614;48.522;9.206;2022-12-18T17:02:32;-4.00;99.90
16995;DHT22;8614;48.522;9.206;2022-12-18T17:04:59;-3.80;99.90
16995;DHT22;8614;48.522;9.206;2022-12-18T17:07:26;-3.70;99.90
16995;DHT22;8614;48.522;9.206;2022-12-18T17:09:53;-3.60;99.90
16995;DHT22;8614;48.522;9.206;2022-12-18T17:12:20;-3.60;99.90
16995;DHT22;8614;48.522;9.206;2022-12-18T17:14:47;-3.50;99.90
16995;DHT22;8614;48.522;9.206;2022-12-18T17:17:14;-3.60;99.90
16995;DHT22;8614;48.522;9.206;2022-12-18T17:19:43;-3.60;99.90
16995;DHT22;8614;48.522;9.206;2022-12-18T17:22:10;-3.60;99.90
16995;DHT22;8614;48.522;9.206;2022-12-18T17:24:36;-3.60;99.90
16995;DHT22;8614;48.522;9.206;2022-12-18T17:27:03;-3.60;99.90
16995;DHT22;8614;48.522;9.206;2022-12-18T17:29:30;-3.60;99.90
16995;DHT22;8614;48.522;9.206;2022-12-18T17:31:57;-3.60;99.90
16995;DHT22;8614;48.522;9.206;2022-12-18T17:34:24;-3.60;99.90
16995;DHT22;8614;48.522;9.206;2022-12-18T17:36:52;-3.60;99.90
16995;DHT22;8614;48.522;9.206;2022-12-18T17:39:19;-3.60;99.90
16995;DHT22;8614;48.522;9.206;2022-12-18T17:41:47;-3.60;99.90
16995;DHT22;8614;48.522;9.206;2022-12-18T17:44:14;-3.60;99.90
16995;DHT22;8614;48.522;9.206;2022-12-18T17:46:41;-3.60;99.90
16995;DHT22;8614;48.522;9.206;2022-12-18T17:49:09;-3.60;99.90
16995;DHT22;8614;48.522;9.206;2022-12-18T17:51:36;-3.60;99.90
16995;DHT22;8614;48.522;9.206;2022-12-18T17:54:04;-3.60;99.90
16995;DHT22;8614;48.522;9.206;2022-12-18T17:56:31;-3.60;99.90
16995;DHT22;8614;48.522;9.206;2022-12-18T17:58:59;-3.70;99.90
16995;DHT22;8614;48.522;9.206;2022-12-18T18:01:26;-3.60;99.90
16995;DHT22;8614;48.522;9.206;2022-12-18T18:03:55;-3.70;99.90
16995;DHT22;8614;48.522;9.206;2022-12-18T18:06:22;-3.70;99.90
16995;DHT22;8614;48.522;9.206;2022-12-18T18:08:50;-3.60;99.90
16995;DHT22;8614;48.522;9.206;2022-12-18T18:11:19;-3.60;99.90
16995;DHT22;8614;48.522;9.206;2022-12-18T18:14:09;-3.60;99.90
16995;DHT22;8614;48.522;9.206;2022-12-18T18:16:39;-3.60;99.90
16995;DHT22;8614;48.522;9.206;2022-12-18T18:19:08;-3.60;99.90
16995;DHT22;8614;48.522;9.206;2022-12-18T18:21:38;-3.50;99.90
16995;DHT22;8614;48.522;9.206;2022-12-18T18:24:06;-3.60;99.90
16995;DHT22;8614;48.522;9.206;2022-12-18T18:26:43;-3.60;99.90
16995;DHT22;8614;48.522;9.206;2022-12-18T18:29:14;-3.60;99.90
16995;DHT22;8614;48.522;9.206;2022-12-18T18:31:41;-3.60;99.90
16995;DHT22;8614;48.522;9.206;2022-12-18T18:34:09;-3.50;99.90
16995;DHT22;8614;48.522;9.206;2022-12-18T18:36:39;-3.50;99.90
16995;DHT22;8614;48.522;9.206;2022-12-18T18:39:06;-3.50;99.90
16995;DHT22;8614;48.522;9.206;2022-12-18T18:41:34;-3.50;99.90
16995;DHT22;8614;48.522;9.206;2022-12-18T18:44:01;-3.50;99.90
16995;DHT22;8614;48.522;9.206;2022-12-18T18:46:28;-3.50;99.90
16995;DHT22;8614;48.522;9.206;2022-12-18T18:48:55;-3.40;99.90
16995;DHT22;8614;48.522;9.206;2022-12-18T18:51:22;-3.40;99.90
16995;DHT22;8614;48.522;9.206;2022-12-18T18:53:50;-3.30;99.90
16995;DHT22;8614;48.522;9.206;2022-12-18T18:56:19;-3.30;99.90
16995;DHT22;8614;48.522;9.206;2022-12-18T18:58:48;-3.30;99.90
16995;DHT22;8614;48.522;9.206;2022-12-18T19:01:17;-3.30;99.90
16995;DHT22;8614;48.522;9.206;2022-12-18T19:03:46;-3.30;99.90
16995;DHT22;8614;48.522;9.206;2022-12-18T19:06:18;-3.20;99.90
16995;DHT22;8614;48.522;9.206;2022-12-18T19:08:45;-3.20;99.90
16995;DHT22;8614;48.522;9.206;2022-12-18T19:11:13;-3.20;99.90
16995;DHT22;8614;48.522;9.206;2022-12-18T19:14:01;-3.30;99.90
16995;DHT22;8614;48.522;9.206;2022-12-18T19:16:28;-3.30;99.90
16995;DHT22;8614;48.522;9.206;2022-12-18T19:18:55;-3.30;99.90
16995;DHT22;8614;48.522;9.206;2022-12-18T19:21:23;-3.30;99.90
16995;DHT22;8614;48.522;9.206;2022-12-18T19:23:51;-3.30;99.90
16995;DHT22;8614;48.522;9.206;2022-12-18T19:26:18;-3.30;99.90